sensor_id;sensor_type;location;lat;lon;timestamp;pressure;altitude;pressure_sealevel;temperature
48894;BMP280;34710;35.798;139.446;2022-07-06T00:00:45;99716.07;;;29.27
48894;BMP280;34710;35.798;139.446;2022-07-06T00:03:14;99717.08;;;29.57
48894;BMP280;34710;35.798;139.446;2022-07-06T00:05:43;99713.52;;;30.44
48894;BMP280;34710;35.798;139.446;2022-07-06T00:08:13;99714.93;;;30.54
48894;BMP280;34710;35.798;139.446;2022-07-06T00:10:42;99705.62;;;31.25
48894;BMP280;34710;35.798;139.446;2022-07-06T00:13:11;99704.16;;;31.47
48894;BMP280;34710;35.798;139.446;2022-07-06T00:15:40;99704.11;;;31.41
48894;BMP280;34710;35.798;139.446;2022-07-06T00:18:10;99695.54;;;32.24
48894;BMP280;34710;35.798;139.446;2022-07-06T00:20:39;99694.38;;;31.99
48894;BMP280;34710;35.798;139.446;2022-07-06T00:23:08;99695.63;;;32.03
48894;BMP280;34710;35.798;139.446;2022-07-06T00:25:37;99695.59;;;32.91
48894;BMP280;34710;35.798;139.446;2022-07-06T00:28:07;99694.51;;;33.42
48894;BMP280;34710;35.798;139.446;2022-07-06T00:30:36;99698.07;;;33.80
48894;BMP280;34710;35.798;139.446;2022-07-06T00:33:05;99700.15;;;34.37
48894;BMP280;34710;35.798;139.446;2022-07-06T00:35:34;99700.02;;;34.67
48894;BMP280;34710;35.798;139.446;2022-07-06T00:38:04;99695.98;;;33.64
48894;BMP280;34710;35.798;139.446;2022-07-06T00:40:34;99689.41;;;33.72
48894;BMP280;34710;35.798;139.446;2022-07-06T00:43:04;99691.89;;;33.75
48894;BMP280;34710;35.798;139.446;2022-07-06T00:45:33;99701.03;;;33.08
48894;BMP280;34710;35.798;139.446;2022-07-06T00:48:02;99694.83;;;33.30
48894;BMP280;34710;35.798;139.446;2022-07-06T00:50:32;99693.82;;;32.97
48894;BMP280;34710;35.798;139.446;2022-07-06T00:53:04;99694.95;;;32.82
48894;BMP280;34710;35.798;139.446;2022-07-06T00:55:35;99693.75;;;33.29
48894;BMP280;34710;35.798;139.446;2022-07-06T00:58:06;99699.49;;;33.16
48894;BMP280;34710;35.798;139.446;2022-07-06T01:00:36;99695.13;;;32.47
48894;BMP280;34710;35.798;139.446;2022-07-06T01:03:06;99695.99;;;32.36
48894;BMP280;34710;35.798;139.446;2022-07-06T01:05:35;99693.44;;;31.84
48894;BMP280;34710;35.798;139.446;2022-07-06T01:08:05;99688.35;;;31.80
48894;BMP280;34710;35.798;139.446;2022-07-06T01:10:34;99688.32;;;31.83
48894;BMP280;34710;35.798;139.446;2022-07-06T01:13:04;99690.87;;;31.78
48894;BMP280;34710;35.798;139.446;2022-07-06T01:15:32;99693.38;;;31.96
48894;BMP280;34710;35.798;139.446;2022-07-06T01:18:04;99696.60;;;31.58
48894;BMP280;34710;35.798;139.446;2022-07-06T01:20:33;99688.68;;;31.80
48894;BMP280;34710;35.798;139.446;2022-07-06T01:23:02;99686.39;;;32.27
48894;BMP280;34710;35.798;139.446;2022-07-06T01:25:32;99688.15;;;31.73
48894;BMP280;34710;35.798;139.446;2022-07-06T01:28:01;99679.68;;;32.30
48894;BMP280;34710;35.798;139.446;2022-07-06T01:30:30;99683.29;;;32.27
48894;BMP280;34710;35.798;139.446;2022-07-06T01:32:59;99680.94;;;31.99
48894;BMP280;34710;35.798;139.446;2022-07-06T01:35:30;99677.92;;;32.73
48894;BMP280;34710;35.798;139.446;2022-07-06T01:38:00;99676.98;;;33.14
48894;BMP280;34710;35.798;139.446;2022-07-06T01:40:29;99678.65;;;32.50
48894;BMP280;34710;35.798;139.446;2022-07-06T01:42:59;99677.86;;;33.17
48894;BMP280;34710;35.798;139.446;2022-07-06T01:45:30;99679.05;;;32.80
48894;BMP280;34710;35.798;139.446;2022-07-06T01:48:00;99674.86;;;33.05
48894;BMP280;34710;35.798;139.446;2022-07-06T01:50:29;99675.67;;;33.11
48894;BMP280;34710;35.798;139.446;2022-07-06T01:53:00;99667.54;;;33.88
48894;BMP280;34710;35.798;139.446;2022-07-06T01:55:30;99667.94;;;33.76
48894;BMP280;34710;35.798;139.446;2022-07-06T01:57:59;99658.99;;;33.74
48894;BMP280;34710;35.798;139.446;2022-07-06T02:00:28;99660.37;;;33.85
48894;BMP280;34710;35.798;139.446;2022-07-06T02:02:57;99657.78;;;33.47
48894;BMP280;34710;35.798;139.446;2022-07-06T02:05:27;99656.74;;;34.06
48894;BMP280;34710;35.798;139.446;2022-07-06T02:07:56;99665.13;;;33.09
48894;BMP280;34710;35.798;139.446;2022-07-06T02:10:25;99660.83;;;33.16
48894;BMP280;34710;35.798;139.446;2022-07-06T02:12:55;99656.82;;;33.51
48894;BMP280;34710;35.798;139.446;2022-07-06T02:15:24;99662.79;;;33.50
48894;BMP280;34710;35.798;139.446;2022-07-06T02:17:54;99664.01;;;33.58
48894;BMP280;34710;35.798;139.446;2022-07-06T02:20:23;99663.47;;;33.57
48894;BMP280;34710;35.798;139.446;2022-07-06T02:22:52;99665.75;;;33.65
48894;BMP280;34710;35.798;139.446;2022-07-06T02:25:21;99662.72;;;33.88
48894;BMP280;34710;35.798;139.446;2022-07-06T02:27:50;99663.40;;;34.14
48894;BMP280;34710;35.798;139.446;2022-07-06T02:30:20;99660.40;;;34.25
48894;BMP280;34710;35.798;139.446;2022-07-06T02:32:49;99661.03;;;34.21
48894;BMP280;34710;35.798;139.446;2022-07-06T02:35:19;99657.23;;;35.16
48894;BMP280;34710;35.798;139.446;2022-07-06T02:37:49;99650.71;;;34.94
48894;BMP280;34710;35.798;139.446;2022-07-06T02:40:18;99646.63;;;34.83
48894;BMP280;34710;35.798;139.446;2022-07-06T02:42:47;99652.49;;;35.43
48894;BMP280;34710;35.798;139.446;2022-07-06T02:45:17;99649.98;;;35.15
48894;BMP280;34710;35.798;139.446;2022-07-06T02:47:46;99656.65;;;35.77
48894;BMP280;34710;35.798;139.446;2022-07-06T02:50:16;99658.96;;;35.18
48894;BMP280;34710;35.798;139.446;2022-07-06T02:52:44;99659.00;;;35.19
48894;BMP280;34710;35.798;139.446;2022-07-06T02:55:14;99656.17;;;35.62
48894;BMP280;34710;35.798;139.446;2022-07-06T02:57:43;99648.32;;;35.40
48894;BMP280;34710;35.798;139.446;2022-07-06T03:00:13;99646.27;;;35.50
48894;BMP280;34710;35.798;139.446;2022-07-06T03:02:43;99650.49;;;36.15
48894;BMP280;34710;35.798;139.446;2022-07-06T03:05:12;99647.36;;;36.70
48894;BMP280;34710;35.798;139.446;2022-07-06T03:07:41;99654.15;;;37.19
48894;BMP280;34710;35.798;139.446;2022-07-06T03:10:10;99658.23;;;37.25
48894;BMP280;34710;35.798;139.446;2022-07-06T03:12:40;99655.47;;;37.69
48894;BMP280;34710;35.798;139.446;2022-07-06T03:15:10;99653.75;;;37.75
48894;BMP280;34710;35.798;139.446;2022-07-06T03:17:40;99654.65;;;37.19
48894;BMP280;34710;35.798;139.446;2022-07-06T03:20:10;99644.57;;;37.54
48894;BMP280;34710;35.798;139.446;2022-07-06T03:22:40;99643.07;;;38.03
48894;BMP280;34710;35.798;139.446;2022-07-06T03:25:10;99641.58;;;38.56
48894;BMP280;34710;35.798;139.446;2022-07-06T03:27:39;99650.38;;;37.88
48894;BMP280;34710;35.798;139.446;2022-07-06T03:30:09;99648.29;;;37.67
48894;BMP280;34710;35.798;139.446;2022-07-06T03:32:39;99646.85;;;37.51
48894;BMP280;34710;35.798;139.446;2022-07-06T03:35:08;99636.57;;;38.08
48894;BMP280;34710;35.798;139.446;2022-07-06T03:37:37;99628.77;;;37.68
48894;BMP280;34710;35.798;139.446;2022-07-06T03:40:08;99629.75;;;37.84
48894;BMP280;34710;35.798;139.446;2022-07-06T03:42:38;99627.73;;;37.62
48894;BMP280;34710;35.798;139.446;2022-07-06T03:45:08;99627.51;;;37.87
48894;BMP280;34710;35.798;139.446;2022-07-06T03:47:37;99626.02;;;38.05
48894;BMP280;34710;35.798;139.446;2022-07-06T03:50:09;99636.36;;;37.99
48894;BMP280;34710;35.798;139.446;2022-07-06T03:52:38;99636.09;;;37.50
48894;BMP280;34710;35.798;139.446;2022-07-06T03:55:10;99645.21;;;37.20
48894;BMP280;34710;35.798;139.446;2022-07-06T03:57:39;99645.66;;;37.04
48894;BMP280;34710;35.798;139.446;2022-07-06T04:00:10;99643.44;;;37.37
48894;BMP280;34710;35.798;139.446;2022-07-06T04:02:40;99635.88;;;37.88
48894;BMP280;34710;35.798;139.446;2022-07-06T04:05:10;99630.54;;;38.01
48894;BMP280;34710;35.798;139.446;2022-07-06T04:07:39;99635.53;;;37.66
48894;BMP280;34710;35.798;139.446;2022-07-06T04:10:09;99637.03;;;37.54
48894;BMP280;34710;35.798;139.446;2022-07-06T04:12:42;99636.14;;;37.68
48894;BMP280;34710;35.798;139.446;2022-07-06T04:15:12;99639.21;;;37.71
48894;BMP280;34710;35.798;139.446;2022-07-06T04:17:41;99639.77;;;37.61
48894;BMP280;34710;35.798;139.446;2022-07-06T04:20:10;99641.35;;;37.52
48894;BMP280;34710;35.798;139.446;2022-07-06T04:22:39;99636.31;;;37.54
48894;BMP280;34710;35.798;139.446;2022-07-06T04:25:09;99633.18;;;37.38
48894;BMP280;34710;35.798;139.446;2022-07-06T04:27:38;99639.32;;;37.21
48894;BMP280;34710;35.798;139.446;2022-07-06T04:30:09;99635.88;;;36.88
48894;BMP280;34710;35.798;139.446;2022-07-06T04:32:39;99638.08;;;36.38
48894;BMP280;34710;35.798;139.446;2022-07-06T04:35:08;99641.29;;;36.44
48894;BMP280;34710;35.798;139.446;2022-07-06T04:37:38;99643.52;;;36.87
48894;BMP280;34710;35.798;139.446;2022-07-06T04:40:08;99645.88;;;36.65
48894;BMP280;34710;35.798;139.446;2022-07-06T04:42:38;99644.83;;;36.28
48894;BMP280;34710;35.798;139.446;2022-07-06T04:45:08;99647.13;;;36.47
48894;BMP280;34710;35.798;139.446;2022-07-06T04:47:37;99652.00;;;36.25
48894;BMP280;34710;35.798;139.446;2022-07-06T04:50:07;99653.21;;;36.62
48894;BMP280;34710;35.798;139.446;2022-07-06T04:52:36;99654.47;;;36.37
48894;BMP280;34710;35.798;139.446;2022-07-06T04:55:07;99650.63;;;36.05
48894;BMP280;34710;35.798;139.446;2022-07-06T04:57:36;99644.58;;;36.32
48894;BMP280;34710;35.798;139.446;2022-07-06T05:00:06;99645.93;;;36.32
48894;BMP280;34710;35.798;139.446;2022-07-06T05:02:36;99642.36;;;36.07
48894;BMP280;34710;35.798;139.446;2022-07-06T05:05:06;99637.16;;;35.84
48894;BMP280;34710;35.798;139.446;2022-07-06T05:07:35;99638.73;;;36.38
48894;BMP280;34710;35.798;139.446;2022-07-06T05:10:05;99641.32;;;35.81
48894;BMP280;34710;35.798;139.446;2022-07-06T05:12:33;99639.65;;;35.77
48894;BMP280;34710;35.798;139.446;2022-07-06T05:15:03;99639.15;;;35.94
48894;BMP280;34710;35.798;139.446;2022-07-06T05:17:34;99638.18;;;35.84
48894;BMP280;34710;35.798;139.446;2022-07-06T05:20:03;99639.50;;;36.08
48894;BMP280;34710;35.798;139.446;2022-07-06T05:22:32;99637.08;;;35.58
48894;BMP280;34710;35.798;139.446;2022-07-06T05:25:01;99640.31;;;35.49
48894;BMP280;34710;35.798;139.446;2022-07-06T05:27:30;99635.45;;;34.73
48894;BMP280;34710;35.798;139.446;2022-07-06T05:30:00;99633.86;;;35.15
48894;BMP280;34710;35.798;139.446;2022-07-06T05:32:29;99632.96;;;34.88
48894;BMP280;34710;35.798;139.446;2022-07-06T05:34:58;99633.31;;;35.13
48894;BMP280;34710;35.798;139.446;2022-07-06T05:37:28;99635.30;;;35.16
48894;BMP280;34710;35.798;139.446;2022-07-06T05:39:57;99633.94;;;35.16
48894;BMP280;34710;35.798;139.446;2022-07-06T05:42:26;99630.56;;;35.21
48894;BMP280;34710;35.798;139.446;2022-07-06T05:44:56;99636.46;;;34.88
48894;BMP280;34710;35.798;139.446;2022-07-06T05:47:26;99641.64;;;34.34
48894;BMP280;34710;35.798;139.446;2022-07-06T05:49:56;99641.30;;;34.60
48894;BMP280;34710;35.798;139.446;2022-07-06T05:52:25;99644.43;;;34.53
48894;BMP280;34710;35.798;139.446;2022-07-06T05:54:54;99642.04;;;34.53
48894;BMP280;34710;35.798;139.446;2022-07-06T05:57:24;99644.54;;;34.32
48894;BMP280;34710;35.798;139.446;2022-07-06T05:59:53;99648.93;;;34.81
48894;BMP280;34710;35.798;139.446;2022-07-06T06:02:22;99655.64;;;34.54
48894;BMP280;34710;35.798;139.446;2022-07-06T06:04:52;99657.47;;;34.28
48894;BMP280;34710;35.798;139.446;2022-07-06T06:07:21;99655.25;;;34.49
48894;BMP280;34710;35.798;139.446;2022-07-06T06:09:50;99656.50;;;34.99
48894;BMP280;34710;35.798;139.446;2022-07-06T06:12:19;99657.52;;;34.60
48894;BMP280;34710;35.798;139.446;2022-07-06T06:14:49;99658.19;;;34.85
48894;BMP280;34710;35.798;139.446;2022-07-06T06:17:18;99663.03;;;34.95
48894;BMP280;34710;35.798;139.446;2022-07-06T06:19:48;99663.84;;;35.14
48894;BMP280;34710;35.798;139.446;2022-07-06T06:22:17;99661.70;;;35.33
48894;BMP280;34710;35.798;139.446;2022-07-06T06:24:47;99662.03;;;34.93
48894;BMP280;34710;35.798;139.446;2022-07-06T06:27:17;99663.93;;;35.21
48894;BMP280;34710;35.798;139.446;2022-07-06T06:29:46;99663.65;;;35.11
48894;BMP280;34710;35.798;139.446;2022-07-06T06:32:16;99664.05;;;35.49
48894;BMP280;34710;35.798;139.446;2022-07-06T06:34:45;99665.97;;;35.41
48894;BMP280;34710;35.798;139.446;2022-07-06T06:37:14;99668.38;;;35.57
48894;BMP280;34710;35.798;139.446;2022-07-06T06:39:44;99665.98;;;35.63
48894;BMP280;34710;35.798;139.446;2022-07-06T06:42:13;99664.68;;;35.11
48894;BMP280;34710;35.798;139.446;2022-07-06T06:44:42;99663.39;;;35.38
48894;BMP280;34710;35.798;139.446;2022-07-06T06:47:11;99661.68;;;35.22
48894;BMP280;34710;35.798;139.446;2022-07-06T06:49:41;99666.79;;;35.34
48894;BMP280;34710;35.798;139.446;2022-07-06T06:52:11;99669.14;;;35.24
48894;BMP280;34710;35.798;139.446;2022-07-06T06:54:41;99668.48;;;35.39
48894;BMP280;34710;35.798;139.446;2022-07-06T06:57:10;99669.65;;;35.39
48894;BMP280;34710;35.798;139.446;2022-07-06T06:59:39;99670.49;;;35.47
48894;BMP280;34710;35.798;139.446;2022-07-06T07:02:09;99669.18;;;35.56
48894;BMP280;34710;35.798;139.446;2022-07-06T07:04:39;99667.22;;;35.44
48894;BMP280;34710;35.798;139.446;2022-07-06T07:07:08;99669.30;;;35.79
48894;BMP280;34710;35.798;139.446;2022-07-06T07:09:38;99671.09;;;35.67
48894;BMP280;34710;35.798;139.446;2022-07-06T07:12:08;99673.62;;;35.87
48894;BMP280;34710;35.798;139.446;2022-07-06T07:14:37;99670.65;;;35.96
48894;BMP280;34710;35.798;139.446;2022-07-06T07:17:06;99667.36;;;35.97
48894;BMP280;34710;35.798;139.446;2022-07-06T07:19:36;99670.63;;;36.23
48894;BMP280;34710;35.798;139.446;2022-07-06T07:22:05;99673.27;;;36.17
48894;BMP280;34710;35.798;139.446;2022-07-06T07:24:35;99669.06;;;36.24
48894;BMP280;34710;35.798;139.446;2022-07-06T07:27:05;99667.64;;;35.95
48894;BMP280;34710;35.798;139.446;2022-07-06T07:29:34;99668.99;;;36.29
48894;BMP280;34710;35.798;139.446;2022-07-06T07:32:03;99669.03;;;36.43
48894;BMP280;34710;35.798;139.446;2022-07-06T07:34:32;99675.44;;;35.85
48894;BMP280;34710;35.798;139.446;2022-07-06T07:37:02;99670.08;;;35.61
48894;BMP280;34710;35.798;139.446;2022-07-06T07:39:31;99668.24;;;35.62
48894;BMP280;34710;35.798;139.446;2022-07-06T07:42:00;99675.63;;;35.42
48894;BMP280;34710;35.798;139.446;2022-07-06T07:44:30;99675.47;;;35.52
48894;BMP280;34710;35.798;139.446;2022-07-06T07:46:59;99677.67;;;35.51
48894;BMP280;34710;35.798;139.446;2022-07-06T07:49:28;99682.42;;;35.30
48894;BMP280;34710;35.798;139.446;2022-07-06T07:51:58;99680.88;;;35.74
48894;BMP280;34710;35.798;139.446;2022-07-06T07:54:27;99688.17;;;35.52
48894;BMP280;34710;35.798;139.446;2022-07-06T07:56:56;99684.02;;;35.45
48894;BMP280;34710;35.798;139.446;2022-07-06T07:59:26;99691.50;;;36.10
48894;BMP280;34710;35.798;139.446;2022-07-06T08:01:56;99694.76;;;35.68
48894;BMP280;34710;35.798;139.446;2022-07-06T08:04:25;99702.38;;;35.37
48894;BMP280;34710;35.798;139.446;2022-07-06T08:06:54;99704.78;;;35.31
48894;BMP280;34710;35.798;139.446;2022-07-06T08:09:23;99709.30;;;34.40
48894;BMP280;34710;35.798;139.446;2022-07-06T08:11:53;99709.93;;;34.30
48894;BMP280;34710;35.798;139.446;2022-07-06T08:14:22;99715.13;;;33.91
48894;BMP280;34710;35.798;139.446;2022-07-06T08:16:52;99720.58;;;33.59
48894;BMP280;34710;35.798;139.446;2022-07-06T08:19:22;99728.97;;;33.70
48894;BMP280;34710;35.798;139.446;2022-07-06T08:21:51;99728.90;;;34.05
48894;BMP280;34710;35.798;139.446;2022-07-06T08:24:20;99742.73;;;33.65
48894;BMP280;34710;35.798;139.446;2022-07-06T08:26:50;99750.39;;;32.92
48894;BMP280;34710;35.798;139.446;2022-07-06T08:29:19;99747.41;;;32.88
48894;BMP280;34710;35.798;139.446;2022-07-06T08:31:48;99753.80;;;32.79
48894;BMP280;34710;35.798;139.446;2022-07-06T08:34:18;99760.95;;;32.94
48894;BMP280;34710;35.798;139.446;2022-07-06T08:36:47;99768.61;;;33.12
48894;BMP280;34710;35.798;139.446;2022-07-06T08:39:16;99770.35;;;33.08
48894;BMP280;34710;35.798;139.446;2022-07-06T08:41:46;99776.17;;;33.12
48894;BMP280;34710;35.798;139.446;2022-07-06T08:44:17;99780.72;;;32.95
48894;BMP280;34710;35.798;139.446;2022-07-06T08:46:47;99783.58;;;31.90
48894;BMP280;34710;35.798;139.446;2022-07-06T08:49:18;99777.96;;;32.72
48894;BMP280;34710;35.798;139.446;2022-07-06T08:51:49;99784.12;;;32.81
48894;BMP280;34710;35.798;139.446;2022-07-06T08:54:19;99790.45;;;32.85
48894;BMP280;34710;35.798;139.446;2022-07-06T08:56:50;99794.12;;;33.15
48894;BMP280;34710;35.798;139.446;2022-07-06T08:59:20;99807.61;;;32.63
48894;BMP280;34710;35.798;139.446;2022-07-06T09:01:49;99815.34;;;32.33
48894;BMP280;34710;35.798;139.446;2022-07-06T09:04:21;99829.23;;;32.43
48894;BMP280;34710;35.798;139.446;2022-07-06T09:06:51;99828.37;;;32.45
48894;BMP280;34710;35.798;139.446;2022-07-06T09:09:23;99825.39;;;31.63
48894;BMP280;34710;35.798;139.446;2022-07-06T09:11:52;99827.63;;;31.96
48894;BMP280;34710;35.798;139.446;2022-07-06T09:14:21;99828.26;;;32.09
48894;BMP280;34710;35.798;139.446;2022-07-06T09:17:02;99835.19;;;32.11
48894;BMP280;34710;35.798;139.446;2022-07-06T09:19:33;99837.77;;;32.17
48894;BMP280;34710;35.798;139.446;2022-07-06T09:22:04;99845.46;;;31.96
48894;BMP280;34710;35.798;139.446;2022-07-06T09:24:33;99843.43;;;31.44
48894;BMP280;34710;35.798;139.446;2022-07-06T09:27:14;99850.10;;;31.65
48894;BMP280;34710;35.798;139.446;2022-07-06T09:29:44;99857.34;;;31.70
48894;BMP280;34710;35.798;139.446;2022-07-06T09:32:20;99863.86;;;31.81
48894;BMP280;34710;35.798;139.446;2022-07-06T09:34:50;99868.24;;;31.45
48894;BMP280;34710;35.798;139.446;2022-07-06T09:37:19;99871.05;;;31.29
48894;BMP280;34710;35.798;139.446;2022-07-06T09:39:50;99879.69;;;31.68
48894;BMP280;34710;35.798;139.446;2022-07-06T09:42:25;99885.10;;;31.27
48894;BMP280;34710;35.798;139.446;2022-07-06T09:44:54;99887.90;;;30.75
48894;BMP280;34710;35.798;139.446;2022-07-06T09:47:24;99893.20;;;30.65
48894;BMP280;34710;35.798;139.446;2022-07-06T09:49:56;99893.89;;;31.29
48894;BMP280;34710;35.798;139.446;2022-07-06T09:52:28;99894.47;;;30.77
48894;BMP280;34710;35.798;139.446;2022-07-06T09:54:58;99897.07;;;31.21
48894;BMP280;34710;35.798;139.446;2022-07-06T09:57:27;99902.34;;;31.11
48894;BMP280;34710;35.798;139.446;2022-07-06T09:59:59;99907.07;;;31.31
48894;BMP280;34710;35.798;139.446;2022-07-06T10:02:29;99913.47;;;30.51
48894;BMP280;34710;35.798;139.446;2022-07-06T10:05:00;99920.54;;;30.62
48894;BMP280;34710;35.798;139.446;2022-07-06T10:07:29;99926.19;;;30.93
48894;BMP280;34710;35.798;139.446;2022-07-06T10:09:58;99928.54;;;30.32
48894;BMP280;34710;35.798;139.446;2022-07-06T10:12:27;99930.61;;;30.58
48894;BMP280;34710;35.798;139.446;2022-07-06T10:14:57;99934.30;;;30.39
48894;BMP280;34710;35.798;139.446;2022-07-06T10:17:27;99935.48;;;30.59
48894;BMP280;34710;35.798;139.446;2022-07-06T10:19:56;99943.50;;;30.50
48894;BMP280;34710;35.798;139.446;2022-07-06T10:22:26;99949.01;;;30.51
48894;BMP280;34710;35.798;139.446;2022-07-06T10:24:56;99958.54;;;30.66
48894;BMP280;34710;35.798;139.446;2022-07-06T10:27:26;99962.06;;;29.84
48894;BMP280;34710;35.798;139.446;2022-07-06T10:29:55;99965.36;;;29.90
48894;BMP280;34710;35.798;139.446;2022-07-06T10:32:26;99969.27;;;30.23
48894;BMP280;34710;35.798;139.446;2022-07-06T10:34:57;99970.53;;;30.45
48894;BMP280;34710;35.798;139.446;2022-07-06T10:37:27;99976.17;;;30.37
48894;BMP280;34710;35.798;139.446;2022-07-06T10:39:57;99981.50;;;29.96
48894;BMP280;34710;35.798;139.446;2022-07-06T10:42:43;99984.61;;;29.94
48894;BMP280;34710;35.798;139.446;2022-07-06T10:45:14;99993.93;;;30.04
48894;BMP280;34710;35.798;139.446;2022-07-06T10:47:43;99999.04;;;30.30
48894;BMP280;34710;35.798;139.446;2022-07-06T10:50:13;100001.74;;;30.16
48894;BMP280;34710;35.798;139.446;2022-07-06T10:52:51;100007.36;;;30.31
48894;BMP280;34710;35.798;139.446;2022-07-06T10:55:39;100013.62;;;29.82
48894;BMP280;34710;35.798;139.446;2022-07-06T10:58:09;100021.52;;;30.29
48894;BMP280;34710;35.798;139.446;2022-07-06T11:00:55;100026.14;;;30.38
48894;BMP280;34710;35.798;139.446;2022-07-06T11:03:41;100030.23;;;30.11
48894;BMP280;34710;35.798;139.446;2022-07-06T11:06:15;100038.72;;;30.18
48894;BMP280;34710;35.798;139.446;2022-07-06T11:08:49;100044.97;;;29.99
48894;BMP280;34710;35.798;139.446;2022-07-06T11:11:21;100045.72;;;29.63
48894;BMP280;34710;35.798;139.446;2022-07-06T11:13:53;100048.39;;;29.73
48894;BMP280;34710;35.798;139.446;2022-07-06T11:16:24;100049.35;;;29.77
48894;BMP280;34710;35.798;139.446;2022-07-06T11:19:04;100048.90;;;30.00
48894;BMP280;34710;35.798;139.446;2022-07-06T11:21:37;100046.43;;;29.92
48894;BMP280;34710;35.798;139.446;2022-07-06T11:24:08;100051.45;;;30.59
48894;BMP280;34710;35.798;139.446;2022-07-06T11:26:38;100047.52;;;30.25
48894;BMP280;34710;35.798;139.446;2022-07-06T11:29:10;100052.99;;;30.71
48894;BMP280;34710;35.798;139.446;2022-07-06T11:31:41;100059.90;;;30.19
48894;BMP280;34710;35.798;139.446;2022-07-06T11:34:12;100064.05;;;30.06
48894;BMP280;34710;35.798;139.446;2022-07-06T11:36:42;100074.04;;;29.71
48894;BMP280;34710;35.798;139.446;2022-07-06T11:39:11;100073.29;;;29.89
48894;BMP280;34710;35.798;139.446;2022-07-06T11:41:40;100072.43;;;30.11
48894;BMP280;34710;35.798;139.446;2022-07-06T11:44:10;100072.61;;;30.08
48894;BMP280;34710;35.798;139.446;2022-07-06T11:46:39;100075.51;;;30.52
48894;BMP280;34710;35.798;139.446;2022-07-06T11:49:09;100077.96;;;30.73
48894;BMP280;34710;35.798;139.446;2022-07-06T11:51:40;100076.08;;;30.81
48894;BMP280;34710;35.798;139.446;2022-07-06T11:54:12;100082.97;;;30.76
48894;BMP280;34710;35.798;139.446;2022-07-06T11:56:48;100087.11;;;30.70
48894;BMP280;34710;35.798;139.446;2022-07-06T11:59:22;100090.15;;;30.68
48894;BMP280;34710;35.798;139.446;2022-07-06T12:01:59;100093.33;;;30.37
48894;BMP280;34710;35.798;139.446;2022-07-06T12:04:29;100096.04;;;30.39
48894;BMP280;34710;35.798;139.446;2022-07-06T12:07:03;100092.59;;;30.24
48894;BMP280;34710;35.798;139.446;2022-07-06T12:09:33;100097.02;;;30.61
48894;BMP280;34710;35.798;139.446;2022-07-06T12:12:05;100102.35;;;30.38
48894;BMP280;34710;35.798;139.446;2022-07-06T12:14:36;100104.03;;;30.25
48894;BMP280;34710;35.798;139.446;2022-07-06T12:17:07;100105.35;;;30.49
48894;BMP280;34710;35.798;139.446;2022-07-06T12:19:38;100106.45;;;30.19
48894;BMP280;34710;35.798;139.446;2022-07-06T12:22:09;100104.10;;;30.43
48894;BMP280;34710;35.798;139.446;2022-07-06T12:24:43;100106.68;;;30.39
48894;BMP280;34710;35.798;139.446;2022-07-06T12:27:15;100107.02;;;30.08
48894;BMP280;34710;35.798;139.446;2022-07-06T12:29:45;100111.25;;;30.39
48894;BMP280;34710;35.798;139.446;2022-07-06T12:32:20;100110.84;;;30.38
48894;BMP280;34710;35.798;139.446;2022-07-06T12:35:03;100115.04;;;30.33
48894;BMP280;34710;35.798;139.446;2022-07-06T12:37:32;100117.27;;;30.05
48894;BMP280;34710;35.798;139.446;2022-07-06T12:40:04;100116.79;;;30.16
48894;BMP280;34710;35.798;139.446;2022-07-06T12:42:47;100121.00;;;30.04
48894;BMP280;34710;35.798;139.446;2022-07-06T12:45:17;100120.94;;;30.03
48894;BMP280;34710;35.798;139.446;2022-07-06T12:47:59;100123.61;;;30.04
48894;BMP280;34710;35.798;139.446;2022-07-06T12:50:37;100123.74;;;30.05
48894;BMP280;34710;35.798;139.446;2022-07-06T12:53:25;100122.84;;;30.08
48894;BMP280;34710;35.798;139.446;2022-07-06T12:56:09;100125.25;;;30.22
48894;BMP280;34710;35.798;139.446;2022-07-06T12:58:38;100130.44;;;30.40
48894;BMP280;34710;35.798;139.446;2022-07-06T13:01:10;100131.15;;;30.10
48894;BMP280;34710;35.798;139.446;2022-07-06T13:03:43;100139.35;;;30.14
48894;BMP280;34710;35.798;139.446;2022-07-06T13:06:12;100142.43;;;29.95
48894;BMP280;34710;35.798;139.446;2022-07-06T13:08:42;100142.33;;;30.10
48894;BMP280;34710;35.798;139.446;2022-07-06T13:11:11;100143.49;;;29.61
48894;BMP280;34710;35.798;139.446;2022-07-06T13:13:44;100143.97;;;30.21
48894;BMP280;34710;35.798;139.446;2022-07-06T13:16:13;100141.76;;;29.74
48894;BMP280;34710;35.798;139.446;2022-07-06T13:18:42;100140.29;;;29.38
48894;BMP280;34710;35.798;139.446;2022-07-06T13:21:12;100139.14;;;29.87
48894;BMP280;34710;35.798;139.446;2022-07-06T13:23:41;100134.92;;;29.57
48894;BMP280;34710;35.798;139.446;2022-07-06T13:26:10;100131.55;;;30.02
48894;BMP280;34710;35.798;139.446;2022-07-06T13:28:40;100127.85;;;29.78
48894;BMP280;34710;35.798;139.446;2022-07-06T13:31:09;100126.25;;;29.68
48894;BMP280;34710;35.798;139.446;2022-07-06T13:33:38;100122.16;;;29.54
48894;BMP280;34710;35.798;139.446;2022-07-06T13:36:08;100120.63;;;29.32
48894;BMP280;34710;35.798;139.446;2022-07-06T13:38:37;100117.52;;;29.54
48894;BMP280;34710;35.798;139.446;2022-07-06T13:41:06;100117.11;;;29.37
48894;BMP280;34710;35.798;139.446;2022-07-06T13:43:35;100114.85;;;29.67
48894;BMP280;34710;35.798;139.446;2022-07-06T13:46:06;100112.46;;;29.66
48894;BMP280;34710;35.798;139.446;2022-07-06T13:48:36;100115.60;;;29.33
48894;BMP280;34710;35.798;139.446;2022-07-06T13:51:06;100116.88;;;29.80
48894;BMP280;34710;35.798;139.446;2022-07-06T13:53:35;100113.04;;;29.29
48894;BMP280;34710;35.798;139.446;2022-07-06T13:56:05;100112.59;;;29.76
48894;BMP280;34710;35.798;139.446;2022-07-06T13:58:34;100111.44;;;29.74